Terminal Aerodrome Forecast
Issued by NWS

Home | Current Version | Previous Version | Text Only | Print | Product List | Glossary On
Versions: 1 2 3 4 5 6 7 8 9 10 11 12 13
000
FTUS45 KABQ 291100
TAFSAF
TAF
KSAF 291127Z 2912/3012 03004KT P6SM SKC
     FM291500 35011KT P6SM FEW120
     FM291930 25011KT P6SM SCT120
     FM300100 18007KT P6SM SCT120
     FM300500 12012KT P6SM SCT100
     FM300900 13018G26KT P6SM BKN100=

USA.gov is the U.S. government's official web portal to all federal, state and local government web resources and services.